Cedar, IA

5:21 PM CDT on September 27, 2016 (GMT -0500)
Oskaloosa Municipal

Weather History for KOOA - March, 2013

Change the Weather History Date:

Monday, March 25, 2013

  Actual Average (KOTM) Record (KOTM)
Temperature  
Mean Temperature 29 °F 43 °F  
Max Temperature 33 °F 54 °F 85 °F (1910)
Min Temperature 25 °F 32 °F 3 °F (1965)
Degree Days  
Heating Degree Days 36 22  
Month to date heating degree days 685  
Since 1 July heating degree days 5570  
Cooling Degree Days 0 0  
Month to date cooling degree days 0  
Year to date cooling degree days 0  
Moisture  
Dew Point 23 °F    
Average Humidity 78    
Maximum Humidity 93    
Minimum Humidity 60    
Precipitation  
Precipitation 0.00 in 0.08 in 1.18 in (1920)
Month to date precipitation 1.75  
Year to date precipitation 3.93  
Sea Level Pressure  
Sea Level Pressure 30.05 in    
Wind  
Wind Speed 14 mph (NNW)    
Max Wind Speed 21 mph    
Max Gust Speed 24 mph    
Visibility 8 miles    
Events Snow    
T = Trace of Precipitation, MM = Missing Value Source: NWS Daily Summary

Daily Weather History Graph

Daily Weather History Graph

Search for Another Location

Airport or City:

Trip Planner

Search our weather history database for the weather conditions in past years. The results will help you decide how hot, cold, wet, or windy it might be!

Date:

Astronomy

Mar. 25, 2013 Rise Set
Actual Time 7:04 AM CDT 7:27 PM CDT
Civil Twilight 6:36 AM CDT 7:55 PM CDT
Nautical Twilight 6:04 AM CDT 8:28 PM CDT
Astronomical Twilight 5:31 AM CDT 9:01 PM CDT
Moon 5:59 PM CDT (3/25) 5:48 AM CDT (3/25)
Length of Visible Light 13h 18m
Length of Day
12h 23m
Waxing Gibbous, 96% of the Moon is Illuminated
Mar 25
Waxing Gibbous
Mar 27
Full
Apr 2
Last Quarter
Apr 10
New
Apr 18
First Quarter

Hourly Weather History & Observations

Time (CDT) Temp. Windchill Dew Point Humidity Pressure Visibility Wind Dir Wind Speed Gust Speed Precip Events Conditions
12:15 AM 28.2 °F 17.2 °F 26.4 °F 93% 29.91 in 2.0 mi NNW 13.8 mph - N/A Snow Light Snow
12:35 AM 28.4 °F 17.5 °F 26.6 °F 93% 29.92 in 1.8 mi NNW 13.8 mph - N/A Snow Light Snow
12:55 AM 28.2 °F 17.2 °F 26.4 °F 93% 29.92 in 2.0 mi NNW 13.8 mph - N/A Snow Light Snow
1:15 AM 28.2 °F 17.7 °F 26.4 °F 93% 29.92 in 1.5 mi NNW 12.7 mph - N/A Snow Light Snow
1:35 AM 28.0 °F 17.5 °F 26.1 °F 92% 29.92 in 1.5 mi NNW 12.7 mph - N/A Snow Light Snow
1:55 AM 27.7 °F 17.1 °F 25.7 °F 92% 29.92 in 2.5 mi NNW 12.7 mph - N/A Snow Light Snow
2:15 AM 27.7 °F 17.1 °F 25.7 °F 92% 29.93 in 2.0 mi NNW 12.7 mph - N/A Snow Light Snow
2:35 AM 27.5 °F 16.8 °F 25.5 °F 92% 29.92 in 2.0 mi NNW 12.7 mph - N/A Snow Light Snow
2:55 AM 27.5 °F 15.9 °F 25.7 °F 93% 29.92 in 2.0 mi NNW 15.0 mph - N/A Snow Light Snow
3:15 AM 27.5 °F 15.9 °F 25.7 °F 93% 29.92 in 2.5 mi NNW 15.0 mph - N/A Snow Light Snow
3:35 AM 27.5 °F 16.3 °F 25.3 °F 92% 29.92 in 3.0 mi NNW 13.8 mph - N/A Snow Light Snow
3:55 AM 27.5 °F 16.3 °F 25.3 °F 92% 29.92 in 3.0 mi NNW 13.8 mph - N/A Snow Light Snow
4:15 AM 27.3 °F 16.1 °F 25.2 °F 92% 29.92 in 1.8 mi NNW 13.8 mph - N/A Snow Light Snow
4:35 AM 27.3 °F 16.1 °F 25.3 °F 92% 29.92 in 2.0 mi NNW 13.8 mph - N/A Snow Light Snow
4:55 AM 27.3 °F 15.6 °F 25.2 °F 92% 29.92 in 2.0 mi NNW 15.0 mph - N/A Snow Light Snow
5:15 AM 27.5 °F 15.9 °F 25.3 °F 92% 29.93 in 3.0 mi NNW 15.0 mph - N/A Snow Light Snow
5:35 AM 27.5 °F 15.9 °F 25.2 °F 91% 29.93 in 2.0 mi NNW 15.0 mph - N/A Snow Light Snow
5:55 AM 27.5 °F 16.3 °F 24.8 °F 90% 29.93 in 3.0 mi NNW 13.8 mph - N/A Snow Light Snow
6:15 AM 27.5 °F 14.6 °F 24.8 °F 90% 29.94 in 3.0 mi NNW 18.4 mph - N/A Snow Light Snow
6:35 AM 27.1 °F 15.4 °F 24.6 °F 90% 29.94 in 5.0 mi NNW 15.0 mph - N/A Snow Light Snow
6:55 AM 27.1 °F 14.9 °F 24.3 °F 89% 29.95 in 7.0 mi NNW 16.1 mph - N/A Snow Light Snow
7:15 AM 27.1 °F 15.4 °F 23.9 °F 88% 29.96 in 10.0 mi NNW 15.0 mph - N/A Snow Light Snow
7:35 AM 27.0 °F 14.7 °F 23.4 °F 86% 29.97 in 3.0 mi NNW 16.1 mph - N/A Snow Light Snow
7:55 AM 27.1 °F 14.9 °F 22.5 °F 83% 29.98 in 10.0 mi NNW 16.1 mph 23.0 mph N/A   Overcast
8:15 AM 27.1 °F 15.4 °F 21.6 °F 80% 29.99 in 10.0 mi NNW 15.0 mph 24.2 mph N/A   Overcast
8:35 AM 27.0 °F 14.7 °F 20.7 °F 77% 29.99 in 10.0 mi NNW 16.1 mph - N/A   Overcast
8:55 AM 27.0 °F 14.7 °F 19.9 °F 75% 30.00 in 10.0 mi NNW 16.1 mph - N/A   Mostly Cloudy
9:15 AM 27.1 °F 14.5 °F 19.6 °F 73% 30.01 in 10.0 mi NNW 17.3 mph - N/A   Overcast
9:35 AM 27.3 °F 16.6 °F 19.4 °F 72% 30.02 in 10.0 mi NNW 12.7 mph - N/A   Overcast
9:55 AM 27.5 °F 15.4 °F 19.4 °F 72% 30.03 in 10.0 mi NNW 16.1 mph - N/A   Overcast
10:15 AM 27.5 °F 14.6 °F 19.4 °F 72% 30.03 in 10.0 mi NNW 18.4 mph - N/A   Overcast
10:35 AM 27.5 °F 14.2 °F 19.6 °F 72% 30.04 in 10.0 mi NNW 19.6 mph - N/A   Overcast
10:55 AM 28.0 °F 15.7 °F 19.9 °F 72% 30.05 in 10.0 mi NNW 17.3 mph 20.7 mph N/A   Overcast
11:15 AM 28.0 °F 15.3 °F 20.1 °F 72% 30.05 in 10.0 mi North 18.4 mph - N/A   Overcast
11:35 AM 28.4 °F 16.2 °F 20.1 °F 71% 30.06 in 10.0 mi NNW 17.3 mph 20.7 mph N/A   Overcast
11:55 AM 28.9 °F 16.9 °F 20.7 °F 71% 30.06 in 10.0 mi NNW 17.3 mph - N/A   Scattered Clouds
12:15 PM 28.6 °F 16.8 °F 20.3 °F 71% 30.07 in 10.0 mi NNW 16.1 mph - N/A   Scattered Clouds
12:35 PM 29.3 °F 17.0 °F 20.7 °F 70% 30.07 in 10.0 mi NNW 18.4 mph - N/A   Scattered Clouds
12:55 PM 29.5 °F 17.6 °F 21.7 °F 73% 30.07 in 10.0 mi NNW 17.3 mph - N/A   Scattered Clouds
1:15 PM 30.2 °F 18.9 °F 21.9 °F 71% 30.07 in 10.0 mi NNW 16.1 mph - N/A   Scattered Clouds
1:35 PM 30.7 °F 19.2 °F 21.9 °F 70% 30.07 in 10.0 mi NNW 17.3 mph - N/A   Scattered Clouds
1:55 PM 31.1 °F 19.3 °F 21.9 °F 69% 30.07 in 10.0 mi NNW 18.4 mph 21.9 mph N/A   Scattered Clouds
2:15 PM 31.5 °F 20.1 °F 22.1 °F 68% 30.07 in 10.0 mi NNW 17.3 mph - N/A   Clear
2:35 PM 32.0 °F 21.2 °F 22.8 °F 69% 30.08 in 10.0 mi NNW 16.1 mph - N/A   Clear
2:55 PM 32.2 °F 20.7 °F 23.4 °F 70% 30.08 in 10.0 mi NNW 18.4 mph 21.9 mph N/A   Scattered Clouds
3:15 PM 32.5 °F 21.2 °F 23.0 °F 68% 30.09 in 10.0 mi NNW 18.4 mph - N/A   Scattered Clouds
3:35 PM 33.1 °F 23.0 °F 23.5 °F 68% 30.09 in 10.0 mi NNW 15.0 mph - N/A   Clear
3:55 PM 32.9 °F 22.4 °F 23.2 °F 67% 30.09 in 10.0 mi NNW 16.1 mph 20.7 mph N/A   Scattered Clouds
4:15 PM 33.1 °F 22.6 °F 23.5 °F 68% 30.10 in 10.0 mi NNW 16.1 mph 19.6 mph N/A   Clear
4:35 PM 33.6 °F 23.3 °F 23.2 °F 66% 30.10 in 10.0 mi NNW 16.1 mph 21.9 mph N/A   Mostly Cloudy
4:55 PM 33.8 °F 23.5 °F 22.6 °F 64% 30.10 in 10.0 mi NNW 16.1 mph - N/A   Mostly Cloudy
5:15 PM 33.8 °F 22.5 °F 21.7 °F 61% 30.11 in 10.0 mi NNW 19.6 mph 23.0 mph N/A   Mostly Cloudy
5:35 PM 33.3 °F 21.5 °F 21.2 °F 61% 30.11 in 10.0 mi NNW 20.7 mph 24.2 mph N/A   Overcast
5:55 PM 33.3 °F 22.8 °F 20.8 °F 60% 30.12 in 10.0 mi NNW 16.1 mph - N/A   Overcast
6:15 PM 32.5 °F 21.5 °F 20.8 °F 62% 30.13 in 10.0 mi NNW 17.3 mph - N/A   Overcast
6:35 PM 32.2 °F 22.3 °F 21.4 °F 64% 30.14 in 10.0 mi NNW 13.8 mph 17.3 mph N/A   Overcast
6:55 PM 32.0 °F 23.0 °F 22.5 °F 68% 30.15 in 10.0 mi NNW 11.5 mph - N/A   Mostly Cloudy
7:15 PM 31.3 °F 22.7 °F 22.5 °F 70% 30.16 in 10.0 mi NNW 10.4 mph - N/A   Mostly Cloudy
7:35 PM 29.3 °F 21.5 °F 21.9 °F 74% 30.17 in 10.0 mi NW 8.1 mph - N/A   Scattered Clouds
7:55 PM 29.1 °F 20.0 °F 21.7 °F 74% 30.17 in 10.0 mi NNW 10.4 mph - N/A   Scattered Clouds
8:15 PM 29.1 °F 20.6 °F 21.4 °F 73% 30.18 in 10.0 mi NNW 9.2 mph - N/A   Scattered Clouds
8:35 PM 27.3 °F 19.9 °F 20.5 °F 75% 30.19 in 10.0 mi NW 6.9 mph - N/A   Clear
8:55 PM 25.3 °F 17.6 °F 19.6 °F 79% 30.19 in 10.0 mi NW 6.9 mph - N/A   Scattered Clouds
9:15 PM 25.3 °F 18.5 °F 20.3 °F 81% 30.20 in 10.0 mi NW 5.8 mph - N/A   Mostly Cloudy
9:35 PM 26.6 °F 19.1 °F 21.2 °F 80% 30.20 in 10.0 mi NW 6.9 mph - N/A   Overcast
9:55 PM 27.5 °F 20.2 °F 22.5 °F 81% 30.21 in 10.0 mi NW 6.9 mph - N/A   Mostly Cloudy
10:15 PM 27.5 °F 20.2 °F 22.1 °F 80% 30.21 in 10.0 mi NW 6.9 mph - N/A   Mostly Cloudy
10:35 PM 26.1 °F 19.4 °F 21.2 °F 82% 30.22 in 10.0 mi NW 5.8 mph - N/A   Scattered Clouds
10:55 PM 26.1 °F 18.4 °F 21.0 °F 81% 30.22 in 10.0 mi NW 6.9 mph - N/A   Mostly Cloudy
11:15 PM 25.5 °F 17.8 °F 20.5 °F 81% 30.23 in 10.0 mi NW 6.9 mph - N/A   Overcast
11:35 PM 25.9 °F 19.2 °F 21.2 °F 82% 30.23 in 10.0 mi NW 5.8 mph - N/A   Overcast
11:55 PM 26.6 °F 20.0 °F 21.9 °F 82% 30.23 in 10.0 mi NW 5.8 mph - N/A   Overcast